Data for 12/09/2017

Time Sea-Level Adjusted Pressure Absolute Pressure Temperature Relative Humidity Dew Point   
(mb) (inHg) (mb) (inHg) (C) (F) (%) (C) (F)
00:05 1031 30.45 860 25.4 -4.6 23.7 72 -8.9 16
00:10 1031 30.45 860 25.4 -4.3 24.2 70 -9.1 15.6
00:15 1031 30.45 861 25.43 -4.8 23.3 75 -8.6 16.4
00:20 1031 30.45 861 25.43 -4.6 23.7 70 -9.3 15.3
00:25 1031 30.45 861 25.43 -4.7 23.5 71 -9.1 15.5
00:30 1031 30.45 861 25.43 -4.2 24.4 70 -8.8 16.1
00:35 1031 30.45 861 25.43 -3.9 24.9 68 -8.9 15.9
00:40 1031 30.45 861 25.43 -3.9 24.9 69 -8.9 16.1
00:45 1031 30.45 861 25.43 -3.7 25.4 66 -9.1 15.6
00:50 1031 30.45 861 25.43 -3.6 25.6 68 -8.6 16.5
00:55 1031 30.45 861 25.43 -3.5 25.6 69 -8.5 16.7
01:00 1031 30.45 861 25.43 -4.1 24.7 69 -8.9 16
01:05 1031 30.45 861 25.43 -4.6 23.6 71 -9.1 15.6
01:10 1031 30.45 861 25.43 -4.4 24.2 71 -8.9 15.9
01:15 1031 30.45 861 25.43 -4.3 24.3 70 -8.9 16
01:20 1031 30.45 861 25.43 -4.2 24.4 70 -8.9 16.1
01:25 1031 30.45 861 25.43 -4 24.8 70 -8.8 16.2
01:30 1031 30.45 861 25.43 -3.8 25.1 68 -8.9 16
01:35 1031 30.45 861 25.43 -4.3 24.3 69 -9.1 15.6
01:40 1031 30.45 861 25.43 -4.1 24.6 67 -9.3 15.3
01:45 1032 30.47 861 25.43 -4 24.8 68 -9.2 15.5
01:50 1032 30.47 861 25.43 -4.1 24.5 67 -9.4 15.2
01:55 1032 30.47 861 25.43 -3.4 25.9 63 -9.5 15
02:00 1031 30.45 861 25.43 -3.2 26.3 64 -9.1 15.6
02:05 1031 30.45 861 25.43 -3.9 24.9 66 -9.5 15
02:10 1032 30.47 861 25.43 -4.3 24.2 67 -9.7 14.6
02:15 1032 30.47 861 25.43 -4.4 24.1 67 -9.7 14.6
02:20 1031 30.45 861 25.43 -4.7 23.6 67 -9.8 14.3
02:25 1031 30.45 861 25.43 -4.5 23.8 66 -10 14
02:30 1032 30.47 861 25.43 -3.7 25.3 63 -9.8 14.3
02:35 1032 30.47 861 25.43 -3.4 25.9 62 -9.6 14.7
02:40 1032 30.47 861 25.43 -4.5 23.8 66 -9.9 14.2
02:45 1032 30.47 861 25.43 -5.2 22.7 68 -10.3 13.5
02:50 1032 30.47 861 25.43 -5.1 22.9 66 -10.5 13.1
02:55 1032 30.47 861 25.43 -4.8 23.3 66 -10.3 13.5
03:00 1032 30.47 861 25.43 -4.2 24.4 64 -10 14
03:05 1031 30.45 861 25.43 -4.3 24.3 64 -10 14
03:10 1031 30.45 861 25.43 -4.1 24.5 62 -10.4 13.3
03:15 1031 30.45 861 25.43 -3.8 25.2 63 -9.8 14.3
03:20 1031 30.45 861 25.43 -3.5 25.7 60 -10.2 13.7
03:25 1031 30.45 861 25.43 -3.2 26.2 60 -9.9 14.2
03:30 1031 30.45 861 25.43 -3.7 25.3 61 -10.2 13.7
03:35 1031 30.45 861 25.43 -3.7 25.3 65 -9.4 15.1
03:40 1031 30.45 861 25.43 -3.9 25 62 -10.2 13.6
03:45 1032 30.47 861 25.43 -4.3 24.2 66 -9.8 14.3
03:50 1031 30.45 861 25.43 -4.9 23.2 67 -10 14
03:55 1032 30.47 861 25.43 -4.5 24 66 -9.8 14.4
04:00 1032 30.47 861 25.43 -4.7 23.6 68 -9.7 14.6
04:05 1032 30.47 861 25.43 -4.1 24.7 64 -9.9 14.2
04:10 1032 30.47 861 25.43 -3.5 25.8 62 -9.6 14.6
04:15 1031 30.45 861 25.43 -3.4 25.8 63 -9.5 14.9
04:20 1031 30.45 861 25.43 -4 24.8 65 -9.7 14.6
04:25 1032 30.47 861 25.43 -3.5 25.7 62 -9.8 14.3
04:30 1032 30.47 861 25.43 -3.4 25.9 63 -9.4 15.1
04:35 1031 30.45 861 25.43 -4 24.8 63 -9.9 14.2
04:40 1031 30.45 861 25.43 -4.1 24.7 64 -10 14
04:45 1031 30.45 861 25.43 -4.2 24.5 65 -9.9 14.2
04:50 1031 30.45 861 25.43 -4 24.8 63 -10 13.9
04:55 1031 30.45 861 25.43 -4.1 24.6 64 -10 14
05:00 1031 30.45 861 25.43 -4 24.8 64 -9.8 14.3
05:05 1031 30.45 861 25.43 -3.9 24.9 64 -9.7 14.5
05:10 1031 30.45 861 25.43 -3.8 25.1 65 -9.5 14.9
05:15 1031 30.45 861 25.43 -4.5 23.9 66 -9.9 14.2
05:20 1031 30.45 861 25.43 -4.6 23.7 67 -9.9 14.2
05:25 1031 30.45 860 25.4 -4.6 23.8 70 -9.2 15.4
05:30 1031 30.45 860 25.4 -4 24.8 67 -9.3 15.2
05:35 1031 30.45 860 25.4 -3.7 25.4 61 -10.2 13.6
05:40 1031 30.45 860 25.4 -3.5 25.7 62 -9.8 14.3
05:45 1031 30.45 860 25.4 -3.3 26.1 61 -9.8 14.4
05:50 1031 30.45 860 25.4 -3.6 25.4 63 -9.7 14.6
05:55 1031 30.45 860 25.4 -4 24.8 65 -9.7 14.5
06:00 1031 30.45 860 25.4 -4.2 24.4 65 -9.8 14.4
06:05 1031 30.45 860 25.4 -4.1 24.7 61 -10.6 13
06:10 1031 30.45 860 25.4 -3.7 25.3 62 -10.1 13.9
06:15 1031 30.45 860 25.4 -3.6 25.5 59 -10.6 12.9
06:20 1031 30.45 860 25.4 -3.4 25.9 56 -11 12.3
06:25 1031 30.45 860 25.4 -3.3 26.1 59 -10.1 13.8
06:30 1031 30.45 860 25.4 -4.2 24.4 64 -10.1 13.7
06:35 1031 30.45 860 25.4 -4.5 23.9 63 -10.5 13.2
06:40 1031 30.45 860 25.4 -4.6 23.8 64 -10.4 13.3
06:45 1031 30.45 860 25.4 -4.9 23.2 65 -10.6 13
06:50 1031 30.45 860 25.4 -4.4 24.1 63 -10.5 13.2
06:55 1031 30.45 860 25.4 -4.3 24.3 64 -10.1 13.9
07:00 1031 30.45 860 25.4 -4 24.8 63 -10 13.9
07:05 1031 30.45 860 25.4 -3.8 25.1 64 -9.8 14.4
07:10 1031 30.45 860 25.4 -4 24.7 64 -9.9 14.2
07:15 1031 30.45 860 25.4 -4 24.7 64 -9.9 14.1
07:20 1031 30.45 860 25.4 -4.1 24.7 63 -10.1 13.9
07:25 1031 30.45 860 25.4 -4.5 23.9 65 -10.1 13.9
07:30 1031 30.45 860 25.4 -4.6 23.7 63 -10.7 12.8
07:35 1031 30.45 860 25.4 -4.4 24.1 64 -10.3 13.5
07:40 1031 30.45 860 25.4 -4.5 24 62 -10.7 12.7
07:45 1031 30.45 860 25.4 -4.8 23.3 59 -11.7 11
07:50 1031 30.45 860 25.4 -4.6 23.7 59 -11.6 11.2
07:55 1031 30.45 860 25.4 -3.9 24.9 57 -11.3 11.6
08:00 1031 30.45 860 25.4 -4.3 24.3 60 -10.9 12.4
08:05 1031 30.45 860 25.4 -4.5 24 60 -11.1 12
08:10 1031 30.45 861 25.43 -4.8 23.3 58 -11.9 10.6
08:15 1031 30.45 861 25.43 -4.1 24.6 53 -12.4 9.7
08:20 1031 30.45 861 25.43 -3.3 26 52 -11.9 10.5
08:25 1031 30.45 861 25.43 -3.5 25.7 51 -12.1 10.2
08:30 1032 30.47 861 25.43 -3.6 25.5 54 -11.8 10.8
08:35 1032 30.47 861 25.43 -4.1 24.6 56 -11.5 11.3
08:40 1032 30.47 861 25.43 -5 23 59 -11.8 10.8
08:45 1032 30.47 861 25.43 -5 23 60 -11.6 11.2
08:50 1032 30.47 861 25.43 -4.9 23.2 60 -11.6 11.1
08:55 1032 30.47 861 25.43 -4.3 24.2 58 -11.5 11.2
09:00 1032 30.47 861 25.43 -3.5 25.6 53 -11.7 11
09:05 1032 30.47 861 25.43 -2.9 26.8 55 -10.8 12.5
09:10 1032 30.47 861 25.43 -2.8 27 54 -10.8 12.5
09:15 1032 30.47 861 25.43 -2.8 27 55 -10.5 13
09:20 1032 30.47 861 25.43 -2.5 27.5 55 -10.3 13.5
09:25 1032 30.47 861 25.43 -2.7 27.2 55 -10.4 13.2
09:30 1032 30.47 861 25.43 -2.3 27.9 54 -10.3 13.4
09:35 1032 30.47 861 25.43 -2.2 28 55 -10.1 13.9
09:40 1032 30.47 861 25.43 -2.7 27.2 56 -10.4 13.4
09:45 1032 30.47 861 25.43 -2.8 26.9 57 -10.3 13.5
09:50 1032 30.47 861 25.43 -2.6 27.3 56 -10.3 13.5
09:55 1032 30.47 861 25.43 -2.6 27.3 54 -10.7 12.8
10:00 1032 30.47 861 25.43 -2.4 27.6 54 -10.6 12.9
10:05 1032 30.47 861 25.43 -2.2 28 52 -10.7 12.7
10:10 1032 30.47 861 25.43 -1.7 29 51 -10.5 13.2
10:15 1032 30.47 861 25.43 -1.9 28.6 53 -10.2 13.7
10:20 1032 30.47 861 25.43 -2 28.4 51 -10.9 12.4
10:25 1032 30.47 861 25.43 -1.5 29.2 49 -10.8 12.5
10:30 1032 30.47 861 25.43 -1 30.1 48 -10.7 12.8
10:35 1032 30.47 861 25.43 -0.6 30.9 48 -10.2 13.6
10:40 1032 30.47 861 25.43 0.1 32.2 46 -10.3 13.4
10:45 1032 30.47 861 25.43 0.9 33.6 44 -10.1 13.8
10:50 1032 30.47 861 25.43 1.2 34.1 43 -10 14.1
10:55 1032 30.47 861 25.43 1.1 34 44 -9.7 14.5
11:00 1032 30.47 861 25.43 1 33.7 46 -9.3 15.3
11:05 1032 30.47 861 25.43 0.9 33.7 45 -9.8 14.4
11:10 1032 30.47 861 25.43 1 33.7 45 -9.8 14.4
11:15 1032 30.47 861 25.43 0.7 33.3 47 -9.3 15.3
11:20 1032 30.47 861 25.43 0.6 33.1 46 -9.8 14.4
11:25 1032 30.47 861 25.43 0.2 32.3 49 -9.4 15
11:30 1032 30.47 861 25.43 -0.1 31.8 48 -9.8 14.3
11:35 1032 30.47 861 25.43 0.3 32.5 47 -9.7 14.5
11:40 1032 30.47 861 25.43 1 33.9 43 -10.1 13.9
11:45 1032 30.47 861 25.43 1.2 34.2 41 -10.5 13.1
11:50 1032 30.47 861 25.43 1.3 34.4 42 -10.2 13.6
11:55 1032 30.47 861 25.43 1.3 34.4 42 -10.3 13.4
12:00 1032 30.47 861 25.43 1.5 34.7 41 -10.4 13.3
12:05 1032 30.47 861 25.43 1.8 35.3 39 -10.6 12.9
12:10 1031 30.45 861 25.43 2 35.6 39 -10.4 13.2
12:15 1031 30.45 861 25.43 2 35.5 39 -10.6 12.9
12:20 1031 30.45 861 25.43 2.6 36.7 37 -10.6 13
12:25 1031 30.45 860 25.4 3.2 37.8 34 -11.1 12
12:30 1031 30.45 860 25.4 3 37.4 36 -10.6 12.8
12:35 1031 30.45 860 25.4 3.5 38.3 37 -9.9 14.1
12:40 1031 30.45 860 25.4 3.5 38.3 35 -10.7 12.8
12:45 1031 30.45 860 25.4 3.2 37.7 39 -9.5 15
12:50 1031 30.45 860 25.4 3.7 38.7 38 -9.4 15
12:55 1031 30.45 860 25.4 4.5 40 37 -9.1 15.7
13:00 1031 30.45 860 25.4 4.5 40.2 37 -9.1 15.6
13:05 1031 30.45 860 25.4 4.3 39.7 39 -8.3 17
13:10 1031 30.45 860 25.4 4.5 40.1 39 -8.4 17
13:15 1031 30.45 860 25.4 4.8 40.6 37 -8.6 16.6
13:20 1031 30.45 860 25.4 5 41 37 -8.4 17
13:25 1031 30.45 860 25.4 4.7 40.5 38 -8.4 16.9
13:30 1031 30.45 860 25.4 4.8 40.6 33 -10.1 13.8
13:35 1031 30.45 860 25.4 4.8 40.6 37 -8.7 16.4
13:40 1031 30.45 860 25.4 5 41 34 -9.7 14.5
13:45 1031 30.45 860 25.4 5.3 41.5 30 -11 12.2
13:50 1031 30.45 860 25.4 5.6 42 32 -10 14.1
13:55 1031 30.45 860 25.4 5 41.1 35 -9.3 15.3
14:00 1031 30.45 860 25.4 4.1 39.4 36 -9.6 14.7
14:05 1031 30.45 860 25.4 4.1 39.4 36 -9.8 14.4
14:10 1031 30.45 860 25.4 4.4 40 37 -9.1 15.7
14:15 1031 30.45 860 25.4 4.3 39.7 38 -9 15.9
14:20 1031 30.45 860 25.4 4.2 39.6 37 -9 15.7
14:25 1031 30.45 860 25.4 4.2 39.6 38 -8.8 16.2
14:30 1031 30.45 860 25.4 3.9 39 40 -8.6 16.5
14:35 1031 30.45 860 25.4 3.3 37.9 41 -8.8 16.1
14:40 1031 30.45 860 25.4 3.2 37.7 41 -8.7 16.3
14:45 1031 30.45 860 25.4 3.6 38.5 40 -8.8 16.2
14:50 1031 30.45 860 25.4 3.4 38.2 40 -8.8 16.2
14:55 1031 30.45 860 25.4 3.1 37.5 43 -8.4 16.8
15:00 1031 30.45 860 25.4 2.2 36 44 -8.7 16.3
15:05 1031 30.45 860 25.4 2.5 36.5 44 -8.6 16.6
15:10 1031 30.45 860 25.4 3.2 37.8 43 -8.3 17.1
15:15 1031 30.45 860 25.4 3.3 38 45 -7.6 18.4
15:20 1031 30.45 860 25.4 3.3 38 46 -7.3 18.8
15:25 1031 30.45 860 25.4 3.1 37.7 46 -7.3 18.9
15:30 1031 30.45 860 25.4 2.7 36.9 48 -7.3 18.8
15:35 1031 30.45 860 25.4 2.6 36.6 48 -7.5 18.5
15:40 1031 30.45 860 25.4 2.2 36 50 -7.1 19.3
15:45 1031 30.45 860 25.4 2.2 36 51 -6.9 19.6
15:50 1031 30.45 860 25.4 2.5 36.5 49 -7.3 18.9
15:55 1031 30.45 860 25.4 2.6 36.7 47 -7.7 18.2
16:00 1031 30.45 860 25.4 2.6 36.6 45 -8.2 17.2
16:05 1031 30.45 860 25.4 2.1 35.8 48 -7.8 17.9
16:10 1031 30.45 860 25.4 1.7 35.1 49 -8 17.7
16:15 1031 30.45 860 25.4 1.4 34.5 51 -7.7 18.1
16:20 1030 30.42 860 25.4 1.2 34.1 52 -7.6 18.4
16:25 1030 30.42 860 25.4 1 33.8 52 -7.8 18
16:30 1031 30.45 860 25.4 1.2 34.2 51 -7.8 18
16:35 1031 30.45 860 25.4 1.5 34.7 51 -7.6 18.4
16:40 1031 30.45 860 25.4 1.5 34.7 51 -7.6 18.3
16:45 1031 30.45 860 25.4 1.3 34.3 54 -7.1 19.1
16:50 1031 30.45 860 25.4 0.9 33.6 54 -7.4 18.7
16:55 1031 30.45 860 25.4 0.7 33.3 55 -7.3 18.9
17:00 1031 30.45 860 25.4 0.9 33.5 56 -6.9 19.5
17:05 1031 30.45 860 25.4 0.9 33.5 56 -6.9 19.6
17:10 1031 30.45 860 25.4 0.7 33.2 55 -7.3 18.9
17:15 1031 30.45 860 25.4 0.5 33 57 -7.1 19.2
17:20 1031 30.45 860 25.4 0.3 32.5 58 -7.2 19.1
17:25 1031 30.45 860 25.4 0.1 32.1 57 -7.5 18.4
17:30 1031 30.45 860 25.4 -0.2 31.6 58 -7.6 18.3
17:35 1031 30.45 860 25.4 -0.3 31.4 57 -7.9 17.7
17:40 1031 30.45 860 25.4 -0.4 31.3 61 -7 19.4
17:45 1031 30.45 860 25.4 -0.4 31.3 58 -7.5 18.4
17:50 1031 30.45 860 25.4 -0.1 31.9 58 -7.4 18.6
17:55 1031 30.45 860 25.4 0.1 32.2 61 -6.5 20.4
18:00 1031 30.45 860 25.4 -0 32 61 -6.6 20
18:05 1031 30.45 860 25.4 0.1 32.2 58 -7.3 18.9
18:10 1031 30.45 860 25.4 0.2 32.3 56 -7.6 18.4
18:15 1031 30.45 860 25.4 0.5 32.8 54 -7.8 17.9
18:20 1031 30.45 860 25.4 0.5 32.9 57 -7.2 19.1
18:25 1031 30.45 860 25.4 -0.2 31.7 60 -6.9 19.5
18:30 1031 30.45 860 25.4 -0.9 30.3 63 -7.1 19.2
18:35 1031 30.45 860 25.4 -1.3 29.6 65 -7 19.3
18:40 1031 30.45 860 25.4 -1.5 29.4 60 -8.3 17.1
18:45 1031 30.45 860 25.4 -1.1 30 58 -8.3 17.1
18:50 1031 30.45 860 25.4 -0.7 30.8 56 -8.5 16.7
18:55 1031 30.45 860 25.4 -0.3 31.5 55 -8.2 17.3
19:00 1031 30.45 860 25.4 -0.8 30.6 57 -8.3 17
19:05 1031 30.45 860 25.4 -0.7 30.8 58 -8 17.6
19:10 1031 30.45 860 25.4 -0.9 30.3 56 -8.7 16.3
19:15 1031 30.45 860 25.4 -0.6 30.9 58 -8 17.6
19:20 1031 30.45 860 25.4 -0.5 31.1 57 -8 17.6
19:25 1031 30.45 860 25.4 -0.5 31.2 57 -7.9 17.7
19:30 1031 30.45 860 25.4 -0.3 31.5 56 -8 17.6
19:35 1031 30.45 860 25.4 -0.3 31.4 56 -8.2 17.3
19:40 1031 30.45 860 25.4 -0.6 31 57 -8.1 17.4
19:45 1031 30.45 860 25.4 -0.7 30.7 58 -7.9 17.8
19:50 1031 30.45 861 25.43 -0.6 30.9 56 -8.2 17.2
19:55 1031 30.45 861 25.43 -0.9 30.3 58 -8.2 17.2
20:00 1031 30.45 861 25.43 -1.2 29.8 60 -8.1 17.4
20:05 1031 30.45 861 25.43 -1.5 29.3 60 -8.2 17.2
20:10 1031 30.45 861 25.43 -1.5 29.4 60 -8.2 17.2
20:15 1031 30.45 861 25.43 -1.4 29.5 61 -8.1 17.5
20:20 1031 30.45 861 25.43 -1.3 29.6 61 -8 17.6
20:25 1031 30.45 861 25.43 -1 30.3 60 -7.7 18.1
20:30 1031 30.45 861 25.43 -1 30.2 59 -8.1 17.4
20:35 1031 30.45 861 25.43 -0.6 30.9 55 -8.5 16.8
20:40 1031 30.45 861 25.43 -0.5 31 58 -7.8 17.9
20:45 1031 30.45 861 25.43 -0.5 31.1 56 -8.3 17.1
20:50 1031 30.45 861 25.43 -0.1 31.8 58 -7.4 18.7
20:55 1031 30.45 861 25.43 0.6 33.1 50 -8.6 16.6
21:00 1031 30.45 861 25.43 1.2 34.2 50 -8.1 17.5
21:05 1031 30.45 861 25.43 -0.5 31.2 57 -7.9 17.7
21:10 1031 30.45 861 25.43 -2.6 27.3 64 -8.5 16.7
21:15 1031 30.45 861 25.43 -3.2 26.3 65 -8.8 16.2
21:20 1031 30.45 861 25.43 -2.5 27.5 60 -9.2 15.5
21:25 1031 30.45 861 25.43 -1.6 29.1 59 -8.6 16.6
21:30 1032 30.47 861 25.43 -1.7 28.9 60 -8.6 16.6
21:35 1031 30.45 861 25.43 -1.5 29.4 56 -9.1 15.7
21:40 1032 30.47 861 25.43 -1.3 29.6 57 -8.7 16.3
21:45 1032 30.47 861 25.43 -1.7 28.9 58 -9 15.8
21:50 1032 30.47 861 25.43 -1.9 28.5 58 -9.2 15.5
21:55 1032 30.47 861 25.43 -2.2 28 58 -9.4 15.1
22:00 1032 30.47 861 25.43 -1.9 28.6 56 -9.4 15
22:05 1032 30.47 861 25.43 -1 30.1 50 -10.2 13.7
22:10 1032 30.47 861 25.43 -0.8 30.6 49 -10.1 13.8
22:15 1032 30.47 861 25.43 -0.9 30.4 49 -10.3 13.4
22:20 1032 30.47 861 25.43 -0.9 30.3 49 -10.3 13.5
22:25 1032 30.47 861 25.43 -0.9 30.4 49 -10.3 13.5
22:30 1032 30.47 861 25.43 -1.3 29.7 53 -9.6 14.6
22:35 1032 30.47 861 25.43 -1.8 28.7 56 -9.6 14.7
22:40 1032 30.47 861 25.43 -2.5 27.5 58 -9.8 14.4
22:45 1032 30.47 861 25.43 -2.4 27.6 57 -9.7 14.5
22:50 1032 30.47 861 25.43 -1.8 28.7 57 -9.4 15.2
22:55 1032 30.47 861 25.43 -1.8 28.8 57 -9.3 15.3
23:00 1032 30.47 861 25.43 -2.2 28.1 59 -9.2 15.4
23:05 1032 30.47 861 25.43 -2.5 27.5 59 -9.5 14.9
23:10 1032 30.47 861 25.43 -1.9 28.5 54 -10.1 13.8
23:15 1032 30.47 861 25.43 -1 30.1 50 -10.1 13.9
23:20 1032 30.47 861 25.43 -0.4 31.3 49 -9.8 14.4
23:25 1032 30.47 861 25.43 -0.8 30.5 49 -10.4 13.3
23:30 1032 30.47 861 25.43 -0.8 30.6 49 -10.1 13.8
23:35 1032 30.47 861 25.43 -1 30.1 51 -9.9 14.2
23:40 1032 30.47 861 25.43 -1.4 29.5 53 -9.8 14.3
23:45 1032 30.47 861 25.43 -1.9 28.6 57 -9.4 15
23:50 1032 30.47 861 25.43 -2.2 28 54 -10.2 13.6
23:55 1032 30.47 861 25.43 -1.5 29.3 52 -10.2 13.7
24:00 1032 30.47 861 25.43 -1.3 29.6 55 -9.2 15.4